GMMZ

Details ICAO GMMZ (OZZ)
Name OUARZAZATE
Region Morocco
Timezone Africa/Casablanca (UTC+0.0)
Plans Departing 28
Arriving 42
Stats Elevation 3,782 ft / 1,153 m (AMSL)
Location 30.939076° -6.909475°
Runways 1
Magnetic Variation 1.633° W
Sunrise 2018-05-26 05:28:17 UTC / 2018-05-26 05:28:17 Local
Sunset 2018-05-26 19:23:57 UTC / 2018-05-26 19:23:57 Local
Advertisement - Login to hide

Runways

ID Width Length Bearing (true) Bearing (mag) Surface Threshold Offset Overrun Length
12 148 ft / 45 m 9,802 ft / 2,988 m 116.92° 118.55° Asphalt 0 ft / 0 m 66 ft / 20 m
30 148 ft / 45 m 9,802 ft / 2,988 m 296.93° 298.56° Asphalt 0 ft / 0 m 66 ft / 20 m

Approach Navaids

Runway Type Ident Frequency Range Bearing (true) Bearing (mag) Slope Elevation
30 Localiser IRZ 110.30 MHz 18 nm / 33 km 296.98° 298.61° - 3,782 ft / 1,153 m (AMSL)
30 Glidescope IRZ 110.30 MHz 10 nm / 19 km 296.93° 298.56° 3.50° 3,782 ft / 1,153 m (AMSL)
30 DME IRZ 110.30 MHz 18 nm / 33 km - - - 3,782 ft / 1,153 m (AMSL)

Map

Weather


0- 5 10 15 20 25 30 35+ Temperature / ° C

Clouds and Precipitation
Forecast for 2018-05-26 06:00 UTC. Updated 6 hours ago

Ground ~20,000 ft ~40,000 ft Winds

METAR

GMMZ 261000Z VRB02KT CAVOK 24/01 Q1012 NOSIG

TAF

TAF GMMZ 260500Z 2606/2712 VRB02KT CAVOK TEMPO 2613/2620 24016KT

Frequencies

Tower 118.10 MHz TWR
Tower 119.30 MHz TWR
Warning: Do not use this data for real-world aviation or navigation. No guarantee of current accuracy is given.